ADDS METAR Data INFO
IDs: Format: Raw Decoded Include TAF

Data at: 0109 UTC 24 Jun 2018

KILG 240051Z 07004KT 10SM SCT018 OVC110 22/21 A2982 RMK AO2 SLP097 T02220206
KILG 232351Z 06004KT 10SM OVC017 23/21 A2981 RMK AO2 SLP093 T02280206 10239 20211 53003
KILG 232251Z 02006KT 10SM BKN016 23/20 A2980 RMK AO2 SLP090 T02330200
KILG 232223Z 03007KT 10SM OVC015 23/21 A2979 RMK AO2 T02330206
KILG 232212Z 03006KT 10SM OVC013 23/21 A2980 RMK AO2 T02330206
KILG 232151Z 12004KT 10SM OVC015 23/21 A2980 RMK AO2 SLP091 T02330206
KILG 232148Z VRB03KT 10SM OVC015 23/21 A2980 RMK AO2
KILG 232051Z 04003KT 10SM OVC012 23/20 A2981 RMK AO2 SLP095 T02330200 55008
KILG 231951Z 09005KT 9SM OVC010 23/20 A2981 RMK AO2 SLP093 T02280200
KILG 231851Z 07006KT 8SM OVC009 22/19 A2982 RMK AO2 SLP099 T02170194
KILG 231751Z 07004KT 8SM OVC009 22/19 A2984 RMK AO2 SLP104 60000 T02170189 10217 20183 58008
KILG 231651Z 08006KT 8SM OVC008 21/19 A2985 RMK AO2 SLP108 T02060189
KILG 231551Z 07005KT 7SM OVC006 19/18 A2986 RMK AO2 SLP111 T01940183
KILG 231451Z 06008KT 10SM OVC005 19/18 A2986 RMK AO2 SLP112 60000 T01940183 51005
KILG 231351Z 05007KT 4SM BR OVC005 19/18 A2986 RMK AO2 SLP110 T01890183
KILG 231340Z 06007KT 2SM BR OVC005 19/18 A2986 RMK AO2 T01890183
KILG 231332Z 05006KT 1 3/4SM BR OVC005 19/18 A2986 RMK AO2 T01890183
KILG 231302Z 06006KT 2SM BR OVC004 18/18 A2987 RMK AO2 T01830183
KILG 231251Z 07006KT 2SM BR OVC005 18/18 A2987 RMK AO2 RAB04E18 SLP113 P0000 T01830183
KILG 231220Z 05008KT 2 1/2SM BR OVC005 18/18 A2986 RMK AO2 RAB04E18 P0000 T01830178
KILG 231151Z 05009KT 2 1/2SM BR OVC004 18/18 A2985 RMK AO2 SLP107 60001 70019 T01830178 10189 20178 56001 $
KILG 231131Z 06007KT 3SM BR OVC004 18/18 A2985 RMK AO2 T01830178 $
KILG 231112Z 05008KT 2 1/2SM BR OVC004 18/18 A2985 RMK AO2 T01830178 $
KILG 231051Z 06007KT 4SM BR OVC004 18/18 A2985 RMK AO2 SLP106 T01830178 $
KILG 231026Z 05008KT 4SM BR OVC004 18/18 A2985 RMK AO2 T01830178 $
KILG 230951Z AUTO 07008KT 6SM BR OVC005 18/18 A2984 RMK AO2 RAE0859 SLP104 P0000 T01830178 $
KILG 230917Z AUTO 06010KT 4SM BR OVC005 18/18 A2984 RMK AO2 RAE0859 P0000 T01830178 $
KILG 230902Z AUTO 07010KT 4SM VCTS BR OVC005 18/18 A2984 RMK AO2 RAE0859 P0000 T01830178 $
KILG 230851Z AUTO 06008KT 5SM -RA BR OVC005 18/18 A2985 RMK AO2 RAB0759E09B34 TSB27E49 SLP108 P0001 60001 T01830178 55012 $
KILG 230827Z AUTO 07010KT 5SM TS BR OVC005 18/18 A2985 RMK AO2 RAB0759E09 TSB27 P0000 T01830178 $
KILG 230751Z AUTO 07011KT 5SM BR OVC005 19/18 A2984 RMK AO2 RAB13E25 SLP105 P0000 T01890183 $
KILG 230651Z AUTO 07008KT 7SM OVC006 19/18 A2987 RMK AO2 SLP115 T01890183 $
KILG 230551Z AUTO 07009KT 10SM OVC005 19/18 A2989 RMK AO2 RAE15 SLP120 P0000 60008 T01890183 10189 20167 58018 $
KILG 230451Z AUTO 08008KT 7SM -RA OVC005 19/18 A2992 RMK AO2 RAB32 CIG 004V009 SLP132 P0000 T01890183 402280167 $
KILG 230351Z AUTO 07011KT 7SM OVC005 18/18 A2991 RMK AO2 RAE02 SLP129 P0000 T01830178 $
KILG 230307Z AUTO 08010KT 9SM OVC008 18/17 A2994 RMK AO2 RAE02 CIG 006V010 P0000 T01830172 $
KILG 230251Z AUTO 07008KT 6SM -RA BR OVC010 18/17 A2994 RMK AO2 RAB08 CIG 007V013 SLP138 P0001 60008 T01830172 58006 $
KILG 230231Z 07009KT 8SM -RA OVC014 18/17 A2995 RMK AO2 RAB08 P0000 T01780172 $
KILG 230215Z 06005KT 10SM -RA BKN016 OVC021 18/17 A2996 RMK AO2 RAB08 P0000 T01780167 $
KILG 230204Z 06006KT 10SM BKN020 OVC044 18/17 A2996 RMK AO2 T01780167 $
KILG 230151Z 05010KT 10SM FEW024 SCT032 OVC044 17/17 A2996 RMK AO2 RAE00 SLP145 P0000 T01720167 $
KILG 230054Z 06010KT 10SM -RA FEW035 OVC050 17/16 A2995 RMK AO2 P0000 T01670161 $
KILG 230051Z 06011KT 2 1/2SM -RA BR FEW035 OVC050 17/16 A2995 RMK AO2 SLP142 P0007 T01670161 $
KILG 230020Z 10009KT 2 1/2SM -RA BR FEW020 OVC039 17/16 A2996 RMK AO2 P0003 T01670156 $
KILG 222351Z 12010KT 7SM -RA OVC046 18/16 A2996 RMK AO2 SLP145 P0008 60010 T01780161 10228 20178 53003 $
KILG 222338Z 11010KT 7SM -RA SCT009 BKN042 OVC050 18/16 A2996 RMK AO2 P0008 T01830161 $
KILG 222332Z 12013KT 3SM -RA BR BKN009 BKN026 OVC055 18/17 A2996 RMK AO2 P0008 T01830167 $
KILG 222327Z 12010KT 1 3/4SM R01/6000VP6000FT RA BR BKN009 BKN021 OVC055 19/17 A2996 RMK AO2 P0008 T01890172 $
KILG 222320Z 12010KT 2SM R01/6000VP6000FT RA BR BKN009 BKN031 OVC075 19/18 A2996 RMK AO2 P0005 T01940183 $
KILG 222251Z 10007KT 6SM -RA BR SCT021 BKN055 OVC080 20/18 A2995 RMK AO2 SLP141 P0001 T02000178 $
KILG 222151Z 09010KT 10SM -RA FEW044 FEW075 BKN090 21/17 A2994 RMK AO2 RAE2055B32 SLP139 P0000 T02110172
KILG 222051Z 09010KT 10SM -RA FEW070 SCT090 BKN110 21/18 A2995 RMK AO2 RAB00 SLP142 P0001 60001 T02110178 58005
KILG 221951Z 11012KT 10SM FEW025 BKN070 OVC085 22/16 A2996 RMK AO2 SLP144 T02170161
KILG 221851Z 10014KT 10SM SCT024 OVC095 22/17 A2996 RMK AO2 SLP146 T02220167
KILG 221751Z 10009KT 10SM OVC095 21/17 A2997 RMK AO2 RAB00E46 SLP147 P0000 60000 T02110172 10228 20211 50000
KILG 221651Z 10010G21KT 10SM FEW025 OVC110 22/17 A2997 RMK AO2 SLP150 T02170167
KILG 221640Z 11010G19KT 10SM FEW025 SCT029 OVC110 22/17 A2997 RMK AO2 T02220167
KILG 221616Z 10011KT 10SM FEW023 BKN029 BKN120 22/17 A2997 RMK AO2 T02220172
KILG 221559Z 10012G18KT 10SM SCT023 BKN030 BKN120 22/17 A2997 RMK AO2 T02220172
KILG 221551Z 11011KT 10SM BKN025 BKN030 22/17 A2997 RMK AO2 SLP150 T02220172
KILG 221451Z 10013G17KT 10SM OVC024 22/17 A2997 RMK AO2 SLP147 T02220172 51013
KILG 221359Z 11013KT 10SM BKN019 22/17 A2996 RMK AO2 T02220172
KILG 221351Z 11011KT 10SM SCT018 22/17 A2996 RMK AO2 SLP143 T02220172